sensor_id;sensor_type;location;lat;lon;timestamp;P1;durP1;ratioP1;P2;durP2;ratioP2
3601;SDS011;1815;50.950;6.920;2023-07-13T00:02:16;2.63;;;0.90;;
3601;SDS011;1815;50.950;6.920;2023-07-13T00:04:42;2.77;;;0.90;;
3601;SDS011;1815;50.950;6.920;2023-07-13T00:07:08;2.90;;;1.03;;
3601;SDS011;1815;50.950;6.920;2023-07-13T00:09:34;3.10;;;1.00;;
3601;SDS011;1815;50.950;6.920;2023-07-13T00:12:00;2.60;;;0.90;;
3601;SDS011;1815;50.950;6.920;2023-07-13T00:14:27;3.00;;;0.77;;
3601;SDS011;1815;50.950;6.920;2023-07-13T00:16:53;4.30;;;0.80;;
3601;SDS011;1815;50.950;6.920;2023-07-13T00:19:20;4.20;;;0.90;;
3601;SDS011;1815;50.950;6.920;2023-07-13T00:21:46;2.90;;;0.80;;
3601;SDS011;1815;50.950;6.920;2023-07-13T00:24:13;2.40;;;0.70;;
3601;SDS011;1815;50.950;6.920;2023-07-13T00:26:41;1.73;;;0.67;;
3601;SDS011;1815;50.950;6.920;2023-07-13T00:29:09;3.10;;;0.60;;
3601;SDS011;1815;50.950;6.920;2023-07-13T00:31:35;3.97;;;0.70;;
3601;SDS011;1815;50.950;6.920;2023-07-13T00:34:03;1.70;;;0.60;;
3601;SDS011;1815;50.950;6.920;2023-07-13T00:36:29;4.33;;;0.90;;
3601;SDS011;1815;50.950;6.920;2023-07-13T00:38:56;3.07;;;0.80;;
3601;SDS011;1815;50.950;6.920;2023-07-13T00:41:23;2.83;;;0.60;;
3601;SDS011;1815;50.950;6.920;2023-07-13T00:43:49;4.07;;;1.00;;
3601;SDS011;1815;50.950;6.920;2023-07-13T00:48:55;2.60;;;0.80;;
3601;SDS011;1815;50.950;6.920;2023-07-13T00:51:26;3.10;;;0.90;;
3601;SDS011;1815;50.950;6.920;2023-07-13T00:53:57;3.53;;;0.60;;
3601;SDS011;1815;50.950;6.920;2023-07-13T00:56:28;4.93;;;0.80;;
3601;SDS011;1815;50.950;6.920;2023-07-13T00:58:55;3.00;;;0.80;;
3601;SDS011;1815;50.950;6.920;2023-07-13T01:01:22;2.33;;;0.70;;
3601;SDS011;1815;50.950;6.920;2023-07-13T01:03:48;3.37;;;0.90;;
3601;SDS011;1815;50.950;6.920;2023-07-13T01:06:14;1.93;;;1.00;;
3601;SDS011;1815;50.950;6.920;2023-07-13T01:08:40;2.93;;;0.70;;
3601;SDS011;1815;50.950;6.920;2023-07-13T01:11:05;3.07;;;1.20;;
3601;SDS011;1815;50.950;6.920;2023-07-13T01:13:33;3.00;;;0.80;;
3601;SDS011;1815;50.950;6.920;2023-07-13T01:16:01;2.80;;;1.00;;
3601;SDS011;1815;50.950;6.920;2023-07-13T01:18:36;3.77;;;0.87;;
3601;SDS011;1815;50.950;6.920;2023-07-13T01:21:04;3.50;;;1.00;;
3601;SDS011;1815;50.950;6.920;2023-07-13T01:23:30;2.30;;;0.90;;
3601;SDS011;1815;50.950;6.920;2023-07-13T01:25:57;3.30;;;0.70;;
3601;SDS011;1815;50.950;6.920;2023-07-13T01:28:24;1.90;;;0.90;;
3601;SDS011;1815;50.950;6.920;2023-07-13T01:30:55;2.97;;;0.70;;
3601;SDS011;1815;50.950;6.920;2023-07-13T01:33:23;1.70;;;0.70;;
3601;SDS011;1815;50.950;6.920;2023-07-13T01:35:50;2.97;;;0.90;;
3601;SDS011;1815;50.950;6.920;2023-07-13T01:38:18;3.20;;;0.70;;
3601;SDS011;1815;50.950;6.920;2023-07-13T01:40:45;2.40;;;0.80;;
3601;SDS011;1815;50.950;6.920;2023-07-13T01:43:11;3.00;;;0.70;;
3601;SDS011;1815;50.950;6.920;2023-07-13T01:45:38;1.50;;;0.67;;
3601;SDS011;1815;50.950;6.920;2023-07-13T01:48:03;1.87;;;0.70;;
3601;SDS011;1815;50.950;6.920;2023-07-13T01:50:32;2.33;;;0.73;;
3601;SDS011;1815;50.950;6.920;2023-07-13T01:52:58;2.30;;;0.80;;
3601;SDS011;1815;50.950;6.920;2023-07-13T01:55:23;2.47;;;1.00;;
3601;SDS011;1815;50.950;6.920;2023-07-13T01:57:49;3.10;;;0.70;;
3601;SDS011;1815;50.950;6.920;2023-07-13T02:00:15;5.73;;;0.70;;
3601;SDS011;1815;50.950;6.920;2023-07-13T02:02:41;2.83;;;0.97;;
3601;SDS011;1815;50.950;6.920;2023-07-13T02:05:09;3.70;;;0.93;;
3601;SDS011;1815;50.950;6.920;2023-07-13T02:07:35;4.77;;;0.80;;
3601;SDS011;1815;50.950;6.920;2023-07-13T02:10:02;6.33;;;0.70;;
3601;SDS011;1815;50.950;6.920;2023-07-13T02:12:28;4.50;;;0.70;;
3601;SDS011;1815;50.950;6.920;2023-07-13T02:14:54;3.10;;;0.97;;
3601;SDS011;1815;50.950;6.920;2023-07-13T02:17:19;4.23;;;0.67;;
3601;SDS011;1815;50.950;6.920;2023-07-13T02:19:45;4.77;;;0.93;;
3601;SDS011;1815;50.950;6.920;2023-07-13T02:22:11;1.70;;;0.80;;
3601;SDS011;1815;50.950;6.920;2023-07-13T02:24:36;3.07;;;0.80;;
3601;SDS011;1815;50.950;6.920;2023-07-13T02:27:04;2.53;;;0.70;;
3601;SDS011;1815;50.950;6.920;2023-07-13T02:29:30;3.20;;;1.07;;
3601;SDS011;1815;50.950;6.920;2023-07-13T02:31:55;3.10;;;0.80;;
3601;SDS011;1815;50.950;6.920;2023-07-13T02:34:22;5.20;;;0.80;;
3601;SDS011;1815;50.950;6.920;2023-07-13T02:36:48;2.43;;;0.70;;
3601;SDS011;1815;50.950;6.920;2023-07-13T02:39:15;1.90;;;0.70;;
3601;SDS011;1815;50.950;6.920;2023-07-13T02:41:41;2.60;;;0.57;;
3601;SDS011;1815;50.950;6.920;2023-07-13T02:44:07;3.33;;;0.80;;
3601;SDS011;1815;50.950;6.920;2023-07-13T02:46:34;2.87;;;0.80;;
3601;SDS011;1815;50.950;6.920;2023-07-13T02:49:01;2.57;;;0.70;;
3601;SDS011;1815;50.950;6.920;2023-07-13T02:51:27;2.27;;;0.60;;
3601;SDS011;1815;50.950;6.920;2023-07-13T02:53:53;4.07;;;0.70;;
3601;SDS011;1815;50.950;6.920;2023-07-13T02:56:22;1.40;;;0.60;;
3601;SDS011;1815;50.950;6.920;2023-07-13T02:58:50;1.50;;;0.60;;
3601;SDS011;1815;50.950;6.920;2023-07-13T03:01:16;1.53;;;0.70;;
3601;SDS011;1815;50.950;6.920;2023-07-13T03:03:45;4.70;;;1.03;;
3601;SDS011;1815;50.950;6.920;2023-07-13T03:06:12;3.37;;;1.43;;
3601;SDS011;1815;50.950;6.920;2023-07-13T03:08:46;3.50;;;0.80;;
3601;SDS011;1815;50.950;6.920;2023-07-13T03:11:15;3.50;;;0.57;;
3601;SDS011;1815;50.950;6.920;2023-07-13T03:13:44;3.13;;;0.90;;
3601;SDS011;1815;50.950;6.920;2023-07-13T03:16:12;3.27;;;0.70;;
3601;SDS011;1815;50.950;6.920;2023-07-13T03:18:40;2.50;;;0.70;;
3601;SDS011;1815;50.950;6.920;2023-07-13T03:21:08;3.40;;;1.10;;
3601;SDS011;1815;50.950;6.920;2023-07-13T03:23:34;3.80;;;0.70;;
3601;SDS011;1815;50.950;6.920;2023-07-13T03:26:02;2.70;;;0.80;;
3601;SDS011;1815;50.950;6.920;2023-07-13T03:28:30;2.50;;;0.70;;
3601;SDS011;1815;50.950;6.920;2023-07-13T03:31:00;2.00;;;1.00;;
3601;SDS011;1815;50.950;6.920;2023-07-13T03:33:30;4.60;;;0.80;;
3601;SDS011;1815;50.950;6.920;2023-07-13T03:35:56;4.43;;;0.70;;
3601;SDS011;1815;50.950;6.920;2023-07-13T03:38:23;2.63;;;0.60;;
3601;SDS011;1815;50.950;6.920;2023-07-13T03:40:49;2.30;;;0.70;;
3601;SDS011;1815;50.950;6.920;2023-07-13T03:43:16;2.83;;;0.60;;
3601;SDS011;1815;50.950;6.920;2023-07-13T03:45:42;2.00;;;0.90;;
3601;SDS011;1815;50.950;6.920;2023-07-13T03:48:08;2.00;;;0.70;;
3601;SDS011;1815;50.950;6.920;2023-07-13T03:50:34;2.63;;;0.80;;
3601;SDS011;1815;50.950;6.920;2023-07-13T03:53:02;3.10;;;0.70;;
3601;SDS011;1815;50.950;6.920;2023-07-13T03:55:28;1.67;;;0.67;;
3601;SDS011;1815;50.950;6.920;2023-07-13T03:57:57;2.23;;;0.90;;
3601;SDS011;1815;50.950;6.920;2023-07-13T04:00:25;1.70;;;0.70;;
3601;SDS011;1815;50.950;6.920;2023-07-13T04:02:52;2.97;;;1.10;;
3601;SDS011;1815;50.950;6.920;2023-07-13T04:05:21;1.87;;;0.70;;
3601;SDS011;1815;50.950;6.920;2023-07-13T04:08:02;3.10;;;0.87;;
3601;SDS011;1815;50.950;6.920;2023-07-13T04:10:30;3.80;;;0.90;;
3601;SDS011;1815;50.950;6.920;2023-07-13T04:12:56;2.53;;;0.70;;
3601;SDS011;1815;50.950;6.920;2023-07-13T04:15:21;1.83;;;0.70;;
3601;SDS011;1815;50.950;6.920;2023-07-13T04:17:47;2.37;;;0.80;;
3601;SDS011;1815;50.950;6.920;2023-07-13T04:20:13;2.53;;;0.80;;
3601;SDS011;1815;50.950;6.920;2023-07-13T04:22:38;2.57;;;0.73;;
3601;SDS011;1815;50.950;6.920;2023-07-13T04:25:04;1.70;;;0.77;;
3601;SDS011;1815;50.950;6.920;2023-07-13T04:27:30;2.43;;;0.80;;
3601;SDS011;1815;50.950;6.920;2023-07-13T04:29:56;5.30;;;0.90;;
3601;SDS011;1815;50.950;6.920;2023-07-13T04:32:22;3.27;;;0.90;;
3601;SDS011;1815;50.950;6.920;2023-07-13T04:34:48;2.07;;;0.70;;
3601;SDS011;1815;50.950;6.920;2023-07-13T04:37:18;3.70;;;0.80;;
3601;SDS011;1815;50.950;6.920;2023-07-13T04:39:45;2.13;;;0.60;;
3601;SDS011;1815;50.950;6.920;2023-07-13T04:42:10;4.70;;;0.80;;
3601;SDS011;1815;50.950;6.920;2023-07-13T04:44:36;2.30;;;0.80;;
3601;SDS011;1815;50.950;6.920;2023-07-13T04:47:02;3.40;;;0.80;;
3601;SDS011;1815;50.950;6.920;2023-07-13T04:49:28;2.60;;;0.80;;
3601;SDS011;1815;50.950;6.920;2023-07-13T04:51:53;2.10;;;0.60;;
3601;SDS011;1815;50.950;6.920;2023-07-13T04:54:20;2.43;;;0.70;;
3601;SDS011;1815;50.950;6.920;2023-07-13T04:56:46;4.40;;;0.70;;
3601;SDS011;1815;50.950;6.920;2023-07-13T04:59:12;2.43;;;0.70;;
3601;SDS011;1815;50.950;6.920;2023-07-13T05:01:50;2.93;;;0.80;;
3601;SDS011;1815;50.950;6.920;2023-07-13T05:04:16;3.10;;;0.80;;
3601;SDS011;1815;50.950;6.920;2023-07-13T05:06:42;2.00;;;0.77;;
3601;SDS011;1815;50.950;6.920;2023-07-13T05:09:08;1.90;;;0.70;;
3601;SDS011;1815;50.950;6.920;2023-07-13T05:11:34;2.83;;;0.77;;
3601;SDS011;1815;50.950;6.920;2023-07-13T05:13:59;2.53;;;0.80;;
3601;SDS011;1815;50.950;6.920;2023-07-13T05:16:26;3.00;;;1.07;;
3601;SDS011;1815;50.950;6.920;2023-07-13T05:18:52;3.80;;;1.83;;
3601;SDS011;1815;50.950;6.920;2023-07-13T05:21:18;3.77;;;0.70;;
3601;SDS011;1815;50.950;6.920;2023-07-13T05:23:44;2.97;;;0.90;;
3601;SDS011;1815;50.950;6.920;2023-07-13T05:26:10;4.43;;;1.13;;
3601;SDS011;1815;50.950;6.920;2023-07-13T05:28:36;4.23;;;0.70;;
3601;SDS011;1815;50.950;6.920;2023-07-13T05:31:03;3.23;;;0.70;;
3601;SDS011;1815;50.950;6.920;2023-07-13T05:33:30;2.60;;;0.73;;
3601;SDS011;1815;50.950;6.920;2023-07-13T05:35:56;2.30;;;0.60;;
3601;SDS011;1815;50.950;6.920;2023-07-13T05:38:22;2.53;;;0.93;;
3601;SDS011;1815;50.950;6.920;2023-07-13T05:40:48;4.37;;;0.90;;
3601;SDS011;1815;50.950;6.920;2023-07-13T05:43:14;2.10;;;0.70;;
3601;SDS011;1815;50.950;6.920;2023-07-13T05:45:41;3.97;;;0.80;;
3601;SDS011;1815;50.950;6.920;2023-07-13T05:48:06;3.13;;;0.87;;
3601;SDS011;1815;50.950;6.920;2023-07-13T05:50:32;5.90;;;0.87;;
3601;SDS011;1815;50.950;6.920;2023-07-13T05:52:58;2.90;;;1.00;;
3601;SDS011;1815;50.950;6.920;2023-07-13T05:55:23;2.83;;;0.90;;
3601;SDS011;1815;50.950;6.920;2023-07-13T05:57:49;3.13;;;0.80;;
3601;SDS011;1815;50.950;6.920;2023-07-13T06:00:15;4.27;;;1.00;;
3601;SDS011;1815;50.950;6.920;2023-07-13T06:02:41;3.43;;;0.90;;
3601;SDS011;1815;50.950;6.920;2023-07-13T06:05:07;2.13;;;0.80;;
3601;SDS011;1815;50.950;6.920;2023-07-13T06:07:33;2.30;;;0.80;;
3601;SDS011;1815;50.950;6.920;2023-07-13T06:09:59;5.60;;;1.10;;
3601;SDS011;1815;50.950;6.920;2023-07-13T06:12:25;2.30;;;1.00;;
3601;SDS011;1815;50.950;6.920;2023-07-13T06:14:51;3.97;;;0.70;;
3601;SDS011;1815;50.950;6.920;2023-07-13T06:17:17;3.53;;;0.70;;
3601;SDS011;1815;50.950;6.920;2023-07-13T06:19:43;5.30;;;1.63;;
3601;SDS011;1815;50.950;6.920;2023-07-13T06:22:09;2.03;;;0.80;;
3601;SDS011;1815;50.950;6.920;2023-07-13T06:24:34;3.13;;;0.80;;
3601;SDS011;1815;50.950;6.920;2023-07-13T06:27:00;2.57;;;0.83;;
3601;SDS011;1815;50.950;6.920;2023-07-13T06:29:26;3.80;;;0.80;;
3601;SDS011;1815;50.950;6.920;2023-07-13T06:31:52;4.00;;;0.80;;
3601;SDS011;1815;50.950;6.920;2023-07-13T06:34:18;4.87;;;1.00;;
3601;SDS011;1815;50.950;6.920;2023-07-13T06:36:44;3.50;;;0.70;;
3601;SDS011;1815;50.950;6.920;2023-07-13T06:39:09;2.87;;;0.90;;
3601;SDS011;1815;50.950;6.920;2023-07-13T06:41:35;5.50;;;0.70;;
3601;SDS011;1815;50.950;6.920;2023-07-13T06:44:02;3.50;;;0.80;;
3601;SDS011;1815;50.950;6.920;2023-07-13T06:46:28;3.37;;;0.63;;
3601;SDS011;1815;50.950;6.920;2023-07-13T06:48:55;2.60;;;0.90;;
3601;SDS011;1815;50.950;6.920;2023-07-13T06:51:21;3.97;;;0.70;;
3601;SDS011;1815;50.950;6.920;2023-07-13T06:53:46;2.10;;;0.73;;
3601;SDS011;1815;50.950;6.920;2023-07-13T06:56:12;3.40;;;1.13;;
3601;SDS011;1815;50.950;6.920;2023-07-13T06:58:38;2.53;;;0.80;;
3601;SDS011;1815;50.950;6.920;2023-07-13T07:01:04;2.93;;;0.70;;
3601;SDS011;1815;50.950;6.920;2023-07-13T07:03:30;3.50;;;0.80;;
3601;SDS011;1815;50.950;6.920;2023-07-13T07:06:00;3.33;;;0.73;;
3601;SDS011;1815;50.950;6.920;2023-07-13T07:08:37;4.90;;;1.07;;
3601;SDS011;1815;50.950;6.920;2023-07-13T07:11:02;1.80;;;0.90;;
3601;SDS011;1815;50.950;6.920;2023-07-13T07:13:28;3.00;;;0.90;;
3601;SDS011;1815;50.950;6.920;2023-07-13T07:15:55;2.73;;;0.77;;
3601;SDS011;1815;50.950;6.920;2023-07-13T07:18:20;2.40;;;0.90;;
3601;SDS011;1815;50.950;6.920;2023-07-13T07:20:46;2.03;;;0.97;;
3601;SDS011;1815;50.950;6.920;2023-07-13T07:23:13;3.33;;;1.60;;
3601;SDS011;1815;50.950;6.920;2023-07-13T07:25:39;5.00;;;1.00;;
3601;SDS011;1815;50.950;6.920;2023-07-13T07:28:07;4.70;;;1.10;;
3601;SDS011;1815;50.950;6.920;2023-07-13T07:30:33;3.17;;;1.07;;
3601;SDS011;1815;50.950;6.920;2023-07-13T07:32:59;2.10;;;0.90;;
3601;SDS011;1815;50.950;6.920;2023-07-13T07:35:26;4.10;;;0.80;;
3601;SDS011;1815;50.950;6.920;2023-07-13T07:37:52;5.20;;;0.80;;
3601;SDS011;1815;50.950;6.920;2023-07-13T07:40:18;1.83;;;0.67;;
3601;SDS011;1815;50.950;6.920;2023-07-13T07:42:44;7.07;;;0.70;;
3601;SDS011;1815;50.950;6.920;2023-07-13T07:45:09;2.40;;;0.90;;
3601;SDS011;1815;50.950;6.920;2023-07-13T07:47:36;2.57;;;0.90;;
3601;SDS011;1815;50.950;6.920;2023-07-13T07:50:02;4.17;;;0.70;;
3601;SDS011;1815;50.950;6.920;2023-07-13T07:52:29;8.43;;;1.23;;
3601;SDS011;1815;50.950;6.920;2023-07-13T07:54:54;4.73;;;0.87;;
3601;SDS011;1815;50.950;6.920;2023-07-13T07:57:20;3.90;;;0.80;;
3601;SDS011;1815;50.950;6.920;2023-07-13T07:59:46;3.83;;;0.90;;
3601;SDS011;1815;50.950;6.920;2023-07-13T08:02:13;5.87;;;1.27;;
3601;SDS011;1815;50.950;6.920;2023-07-13T08:04:39;2.47;;;0.90;;
3601;SDS011;1815;50.950;6.920;2023-07-13T08:07:05;2.20;;;0.90;;
3601;SDS011;1815;50.950;6.920;2023-07-13T08:09:31;3.10;;;1.00;;
3601;SDS011;1815;50.950;6.920;2023-07-13T08:11:57;6.20;;;1.03;;
3601;SDS011;1815;50.950;6.920;2023-07-13T08:14:23;2.00;;;1.00;;
3601;SDS011;1815;50.950;6.920;2023-07-13T08:16:49;2.73;;;1.23;;
3601;SDS011;1815;50.950;6.920;2023-07-13T08:19:15;5.27;;;1.00;;
3601;SDS011;1815;50.950;6.920;2023-07-13T08:21:40;1.97;;;0.80;;
3601;SDS011;1815;50.950;6.920;2023-07-13T08:24:08;4.43;;;0.90;;
3601;SDS011;1815;50.950;6.920;2023-07-13T08:26:34;3.17;;;0.80;;
3601;SDS011;1815;50.950;6.920;2023-07-13T08:29:00;4.67;;;1.00;;
3601;SDS011;1815;50.950;6.920;2023-07-13T08:31:27;3.30;;;0.90;;
3601;SDS011;1815;50.950;6.920;2023-07-13T08:33:52;3.10;;;1.03;;
3601;SDS011;1815;50.950;6.920;2023-07-13T08:36:18;7.90;;;1.00;;
3601;SDS011;1815;50.950;6.920;2023-07-13T08:38:44;4.57;;;1.13;;
3601;SDS011;1815;50.950;6.920;2023-07-13T08:41:13;2.93;;;1.07;;
3601;SDS011;1815;50.950;6.920;2023-07-13T08:43:41;2.83;;;0.90;;
3601;SDS011;1815;50.950;6.920;2023-07-13T08:46:13;6.93;;;0.90;;
3601;SDS011;1815;50.950;6.920;2023-07-13T08:48:48;3.37;;;0.90;;
3601;SDS011;1815;50.950;6.920;2023-07-13T08:53:55;4.70;;;0.80;;
3601;SDS011;1815;50.950;6.920;2023-07-13T08:56:27;2.60;;;0.80;;
3601;SDS011;1815;50.950;6.920;2023-07-13T08:58:58;3.57;;;1.17;;
3601;SDS011;1815;50.950;6.920;2023-07-13T09:01:33;5.17;;;0.80;;
3601;SDS011;1815;50.950;6.920;2023-07-13T09:04:11;2.47;;;1.00;;
3601;SDS011;1815;50.950;6.920;2023-07-13T09:11:57;3.70;;;1.20;;
3601;SDS011;1815;50.950;6.920;2023-07-13T09:14:58;2.50;;;0.90;;
3601;SDS011;1815;50.950;6.920;2023-07-13T09:17:27;3.80;;;1.00;;
3601;SDS011;1815;50.950;6.920;2023-07-13T09:20:05;4.73;;;1.07;;
3601;SDS011;1815;50.950;6.920;2023-07-13T09:22:34;2.13;;;0.90;;
3601;SDS011;1815;50.950;6.920;2023-07-13T09:25:20;4.77;;;0.73;;
3601;SDS011;1815;50.950;6.920;2023-07-13T09:27:50;3.40;;;1.20;;
3601;SDS011;1815;50.950;6.920;2023-07-13T09:30:23;3.27;;;0.90;;
3601;SDS011;1815;50.950;6.920;2023-07-13T09:32:58;3.60;;;0.80;;
3601;SDS011;1815;50.950;6.920;2023-07-13T09:35:25;2.93;;;1.27;;
3601;SDS011;1815;50.950;6.920;2023-07-13T09:37:57;2.40;;;0.90;;
3601;SDS011;1815;50.950;6.920;2023-07-13T09:40:28;3.40;;;0.97;;
3601;SDS011;1815;50.950;6.920;2023-07-13T09:43:05;5.23;;;0.93;;
3601;SDS011;1815;50.950;6.920;2023-07-13T09:45:36;2.10;;;0.80;;
3601;SDS011;1815;50.950;6.920;2023-07-13T09:48:20;3.10;;;1.10;;
3601;SDS011;1815;50.950;6.920;2023-07-13T09:50:46;3.47;;;1.20;;
3601;SDS011;1815;50.950;6.920;2023-07-13T09:53:15;3.07;;;0.70;;
3601;SDS011;1815;50.950;6.920;2023-07-13T09:55:44;4.93;;;0.80;;
3601;SDS011;1815;50.950;6.920;2023-07-13T09:58:15;4.10;;;1.10;;
3601;SDS011;1815;50.950;6.920;2023-07-13T10:01:02;3.60;;;0.90;;
3601;SDS011;1815;50.950;6.920;2023-07-13T10:03:33;2.90;;;0.90;;
3601;SDS011;1815;50.950;6.920;2023-07-13T10:06:14;3.00;;;0.90;;
3601;SDS011;1815;50.950;6.920;2023-07-13T10:08:43;3.30;;;1.10;;
3601;SDS011;1815;50.950;6.920;2023-07-13T10:11:11;4.40;;;1.03;;
3601;SDS011;1815;50.950;6.920;2023-07-13T10:13:53;4.80;;;0.90;;
3601;SDS011;1815;50.950;6.920;2023-07-13T10:16:34;5.30;;;1.00;;
3601;SDS011;1815;50.950;6.920;2023-07-13T10:21:49;1.93;;;0.90;;
3601;SDS011;1815;50.950;6.920;2023-07-13T10:24:20;3.20;;;1.07;;
3601;SDS011;1815;50.950;6.920;2023-07-13T10:26:52;3.70;;;0.90;;
3601;SDS011;1815;50.950;6.920;2023-07-13T10:29:23;3.30;;;1.00;;
3601;SDS011;1815;50.950;6.920;2023-07-13T10:31:51;2.80;;;0.90;;
3601;SDS011;1815;50.950;6.920;2023-07-13T10:34:17;3.70;;;0.90;;
3601;SDS011;1815;50.950;6.920;2023-07-13T10:36:44;2.33;;;0.77;;
3601;SDS011;1815;50.950;6.920;2023-07-13T10:39:22;2.80;;;0.90;;
3601;SDS011;1815;50.950;6.920;2023-07-13T10:41:52;2.83;;;0.77;;
3601;SDS011;1815;50.950;6.920;2023-07-13T10:44:26;3.90;;;0.87;;
3601;SDS011;1815;50.950;6.920;2023-07-13T10:47:04;2.37;;;0.83;;
3601;SDS011;1815;50.950;6.920;2023-07-13T10:49:33;2.20;;;0.80;;
3601;SDS011;1815;50.950;6.920;2023-07-13T10:52:00;2.27;;;0.73;;
3601;SDS011;1815;50.950;6.920;2023-07-13T10:59:41;3.70;;;1.10;;
3601;SDS011;1815;50.950;6.920;2023-07-13T11:02:16;2.27;;;0.80;;
3601;SDS011;1815;50.950;6.920;2023-07-13T11:04:48;2.93;;;0.93;;
3601;SDS011;1815;50.950;6.920;2023-07-13T11:07:22;6.83;;;1.03;;
3601;SDS011;1815;50.950;6.920;2023-07-13T11:09:53;3.93;;;0.83;;
3601;SDS011;1815;50.950;6.920;2023-07-13T11:20:26;2.80;;;1.00;;
3601;SDS011;1815;50.950;6.920;2023-07-13T11:23:09;3.30;;;0.80;;
3601;SDS011;1815;50.950;6.920;2023-07-13T11:25:37;2.53;;;0.70;;
3601;SDS011;1815;50.950;6.920;2023-07-13T11:36:21;2.50;;;1.00;;
3601;SDS011;1815;50.950;6.920;2023-07-13T11:39:03;5.40;;;1.20;;
3601;SDS011;1815;50.950;6.920;2023-07-13T11:41:43;5.73;;;1.10;;
3601;SDS011;1815;50.950;6.920;2023-07-13T11:44:12;3.97;;;1.10;;
3601;SDS011;1815;50.950;6.920;2023-07-13T11:46:44;2.53;;;0.60;;
3601;SDS011;1815;50.950;6.920;2023-07-13T11:49:14;2.40;;;0.77;;
3601;SDS011;1815;50.950;6.920;2023-07-13T11:51:41;2.23;;;0.70;;
3601;SDS011;1815;50.950;6.920;2023-07-13T11:56:52;3.47;;;1.10;;
3601;SDS011;1815;50.950;6.920;2023-07-13T11:59:20;2.73;;;1.00;;
3601;SDS011;1815;50.950;6.920;2023-07-13T12:01:48;2.07;;;0.80;;
3601;SDS011;1815;50.950;6.920;2023-07-13T12:04:27;3.20;;;0.87;;
3601;SDS011;1815;50.950;6.920;2023-07-13T12:07:30;4.13;;;1.10;;
3601;SDS011;1815;50.950;6.920;2023-07-13T12:09:48;2.77;;;0.90;;
3601;SDS011;1815;50.950;6.920;2023-07-13T12:12:20;4.07;;;0.80;;
3601;SDS011;1815;50.950;6.920;2023-07-13T12:14:50;3.07;;;0.90;;
3601;SDS011;1815;50.950;6.920;2023-07-13T12:17:21;4.70;;;1.03;;
3601;SDS011;1815;50.950;6.920;2023-07-13T12:19:48;3.43;;;1.00;;
3601;SDS011;1815;50.950;6.920;2023-07-13T12:22:16;3.40;;;0.83;;
3601;SDS011;1815;50.950;6.920;2023-07-13T12:24:44;2.60;;;0.70;;
3601;SDS011;1815;50.950;6.920;2023-07-13T12:27:24;3.50;;;0.80;;
3601;SDS011;1815;50.950;6.920;2023-07-13T12:29:59;3.27;;;1.00;;
3601;SDS011;1815;50.950;6.920;2023-07-13T12:32:27;3.40;;;0.80;;
3601;SDS011;1815;50.950;6.920;2023-07-13T12:37:56;2.20;;;0.97;;
3601;SDS011;1815;50.950;6.920;2023-07-13T12:40:25;3.80;;;1.10;;
3601;SDS011;1815;50.950;6.920;2023-07-13T12:42:56;2.90;;;0.87;;
3601;SDS011;1815;50.950;6.920;2023-07-13T12:45:23;2.03;;;0.80;;
3601;SDS011;1815;50.950;6.920;2023-07-13T12:47:53;2.77;;;0.80;;
3601;SDS011;1815;50.950;6.920;2023-07-13T12:50:34;2.73;;;0.93;;
3601;SDS011;1815;50.950;6.920;2023-07-13T12:53:04;2.10;;;0.70;;
3601;SDS011;1815;50.950;6.920;2023-07-13T12:55:40;2.27;;;0.77;;
3601;SDS011;1815;50.950;6.920;2023-07-13T12:58:09;2.33;;;1.00;;
3601;SDS011;1815;50.950;6.920;2023-07-13T13:00:53;4.83;;;1.00;;
3601;SDS011;1815;50.950;6.920;2023-07-13T13:03:44;5.70;;;1.00;;
3601;SDS011;1815;50.950;6.920;2023-07-13T13:08:48;4.20;;;1.27;;
3601;SDS011;1815;50.950;6.920;2023-07-13T13:11:19;2.57;;;0.80;;
3601;SDS011;1815;50.950;6.920;2023-07-13T13:13:48;2.80;;;1.10;;
3601;SDS011;1815;50.950;6.920;2023-07-13T13:18:46;3.00;;;0.90;;
3601;SDS011;1815;50.950;6.920;2023-07-13T13:21:13;3.43;;;0.87;;
3601;SDS011;1815;50.950;6.920;2023-07-13T13:23:40;2.90;;;0.70;;
3601;SDS011;1815;50.950;6.920;2023-07-13T13:26:12;2.03;;;0.73;;
3601;SDS011;1815;50.950;6.920;2023-07-13T13:28:41;3.30;;;0.70;;
3601;SDS011;1815;50.950;6.920;2023-07-13T13:31:08;3.23;;;0.70;;
3601;SDS011;1815;50.950;6.920;2023-07-13T13:33:37;2.40;;;0.80;;
3601;SDS011;1815;50.950;6.920;2023-07-13T13:36:18;4.00;;;0.87;;
3601;SDS011;1815;50.950;6.920;2023-07-13T13:38:45;3.13;;;0.70;;
3601;SDS011;1815;50.950;6.920;2023-07-13T13:41:12;2.23;;;1.00;;
3601;SDS011;1815;50.950;6.920;2023-07-13T13:43:42;3.77;;;1.00;;
3601;SDS011;1815;50.950;6.920;2023-07-13T13:46:20;2.23;;;0.80;;
3601;SDS011;1815;50.950;6.920;2023-07-13T13:48:50;2.23;;;0.70;;
3601;SDS011;1815;50.950;6.920;2023-07-13T13:51:18;2.67;;;0.90;;
3601;SDS011;1815;50.950;6.920;2023-07-13T13:53:46;4.30;;;1.97;;
3601;SDS011;1815;50.950;6.920;2023-07-13T13:56:13;5.63;;;3.23;;
3601;SDS011;1815;50.950;6.920;2023-07-13T13:58:40;4.60;;;1.90;;
3601;SDS011;1815;50.950;6.920;2023-07-13T14:01:13;2.70;;;1.00;;
3601;SDS011;1815;50.950;6.920;2023-07-13T14:03:42;3.00;;;1.20;;
3601;SDS011;1815;50.950;6.920;2023-07-13T14:06:11;3.53;;;1.00;;
3601;SDS011;1815;50.950;6.920;2023-07-13T14:08:38;4.80;;;1.90;;
3601;SDS011;1815;50.950;6.920;2023-07-13T14:11:03;3.63;;;1.60;;
3601;SDS011;1815;50.950;6.920;2023-07-13T14:13:36;3.60;;;1.27;;
3601;SDS011;1815;50.950;6.920;2023-07-13T14:16:12;2.97;;;1.30;;
3601;SDS011;1815;50.950;6.920;2023-07-13T14:18:42;3.43;;;1.33;;
3601;SDS011;1815;50.950;6.920;2023-07-13T14:21:17;3.43;;;1.40;;
3601;SDS011;1815;50.950;6.920;2023-07-13T14:23:46;3.13;;;1.33;;
3601;SDS011;1815;50.950;6.920;2023-07-13T14:26:14;3.10;;;0.93;;
3601;SDS011;1815;50.950;6.920;2023-07-13T14:28:43;3.70;;;1.10;;
3601;SDS011;1815;50.950;6.920;2023-07-13T14:31:11;3.00;;;0.83;;
3601;SDS011;1815;50.950;6.920;2023-07-13T14:33:38;2.40;;;0.80;;
3601;SDS011;1815;50.950;6.920;2023-07-13T14:36:17;2.50;;;1.60;;
3601;SDS011;1815;50.950;6.920;2023-07-13T14:38:50;5.30;;;1.10;;
3601;SDS011;1815;50.950;6.920;2023-07-13T14:41:16;2.83;;;1.17;;
3601;SDS011;1815;50.950;6.920;2023-07-13T14:43:41;3.90;;;2.27;;
3601;SDS011;1815;50.950;6.920;2023-07-13T14:46:08;3.40;;;2.03;;
3601;SDS011;1815;50.950;6.920;2023-07-13T14:49:05;3.63;;;1.70;;
3601;SDS011;1815;50.950;6.920;2023-07-13T14:51:50;3.50;;;1.30;;
3601;SDS011;1815;50.950;6.920;2023-07-13T14:54:15;3.50;;;1.27;;
3601;SDS011;1815;50.950;6.920;2023-07-13T14:56:41;5.97;;;2.03;;
3601;SDS011;1815;50.950;6.920;2023-07-13T14:59:07;5.20;;;2.80;;
3601;SDS011;1815;50.950;6.920;2023-07-13T15:01:36;6.20;;;2.97;;
3601;SDS011;1815;50.950;6.920;2023-07-13T15:04:03;5.60;;;4.10;;
3601;SDS011;1815;50.950;6.920;2023-07-13T15:06:29;3.90;;;1.60;;
3601;SDS011;1815;50.950;6.920;2023-07-13T15:08:56;2.73;;;1.37;;
3601;SDS011;1815;50.950;6.920;2023-07-13T15:11:22;3.40;;;1.40;;
3601;SDS011;1815;50.950;6.920;2023-07-13T15:13:49;3.83;;;1.40;;
3601;SDS011;1815;50.950;6.920;2023-07-13T15:16:23;2.57;;;0.90;;
3601;SDS011;1815;50.950;6.920;2023-07-13T15:18:50;2.73;;;0.80;;
3601;SDS011;1815;50.950;6.920;2023-07-13T15:21:21;4.37;;;1.00;;
3601;SDS011;1815;50.950;6.920;2023-07-13T15:23:49;3.13;;;0.90;;
3601;SDS011;1815;50.950;6.920;2023-07-13T15:26:16;2.33;;;0.60;;
3601;SDS011;1815;50.950;6.920;2023-07-13T15:28:43;3.63;;;1.00;;
3601;SDS011;1815;50.950;6.920;2023-07-13T15:31:25;2.80;;;1.00;;
3601;SDS011;1815;50.950;6.920;2023-07-13T15:33:57;3.80;;;1.40;;
3601;SDS011;1815;50.950;6.920;2023-07-13T15:36:24;3.33;;;1.20;;
3601;SDS011;1815;50.950;6.920;2023-07-13T15:38:54;2.30;;;0.70;;
3601;SDS011;1815;50.950;6.920;2023-07-13T15:41:22;3.10;;;0.80;;
3601;SDS011;1815;50.950;6.920;2023-07-13T15:43:51;2.03;;;0.90;;
3601;SDS011;1815;50.950;6.920;2023-07-13T15:46:19;2.73;;;0.70;;
3601;SDS011;1815;50.950;6.920;2023-07-13T15:48:47;2.00;;;0.70;;
3601;SDS011;1815;50.950;6.920;2023-07-13T15:51:24;3.40;;;1.10;;
3601;SDS011;1815;50.950;6.920;2023-07-13T15:53:56;2.40;;;0.80;;
3601;SDS011;1815;50.950;6.920;2023-07-13T15:56:25;4.23;;;0.80;;
3601;SDS011;1815;50.950;6.920;2023-07-13T15:58:53;3.73;;;1.07;;
3601;SDS011;1815;50.950;6.920;2023-07-13T16:01:21;7.33;;;0.90;;
3601;SDS011;1815;50.950;6.920;2023-07-13T16:03:51;3.97;;;1.10;;
3601;SDS011;1815;50.950;6.920;2023-07-13T16:06:23;4.17;;;1.40;;
3601;SDS011;1815;50.950;6.920;2023-07-13T16:08:50;4.93;;;1.10;;
3601;SDS011;1815;50.950;6.920;2023-07-13T16:11:22;4.47;;;0.93;;